MUIV weather

Nuevitas Airport
Nuevitas, Camag├╝ey, Cuba

Public forecast

Using degrees Celsius for public forecast. Weather courtesy of forecast.io.

METAR (pilot weather report)

Closest report is Ignacio Agramonte International Airport, 33.9 nm (62.7 km) WSW. Retrieved 2019/05/24 03:52 UTC (37 minutes ago):

MUCM 240352Z 04010KT 9000 FEW016 24/22 Q1016

TAF (pilot weather forecast)

Forecast is more than 12 hours old.

Closest forecast is Ignacio Agramonte International Airport, 33.9 nm (62.7 km) WSW. Retrieved 2019/05/23 00:03 UTC (1 day ago):

TAF TAF MUCM 232300Z 2400/2424 03013KT 9000 SCT020 BECMG 2402/2404 VRB03KT BECMG 2415/2417 03015KT